SAS73T ESSA-ESNS
Flight info
| Callsign | SAS73T |
|---|---|
| Flight time | 0h 58m |
| Altitude | 39000 |
| Route | LUMAX6Q RESNA DCT KETEL DCT |
| Aircraft | A320/M-SDE3FGHIJ1RWXYZ/ALB1 |
Departure
| Time | 2026-04-11 04:37 |
|---|---|
| Airport | Stockholm-Arlanda Airport (ESSA) |
Arrival
| Time | 2026-04-11 05:36 |
|---|---|
| Airport | Skellefteå Airport (ESNS) |
| Time | Latitude | Longitude | Altitude | Speed | Heading |
|---|---|---|---|---|---|
| 2026-04-11 04:08 | 59.65290 | 17.92961 | 112 ft | 0 kts | 70° |
| 2026-04-11 04:28 | 59.65287 | 17.92949 | 111 ft | 4 kts | 70° |
| 2026-04-11 04:28 | 59.65278 | 17.92899 | 112 ft | 4 kts | 70° |
| 2026-04-11 04:28 | 59.65269 | 17.92849 | 112 ft | 4 kts | 70° |
| 2026-04-11 04:29 | 59.65260 | 17.92799 | 111 ft | 4 kts | 70° |
| 2026-04-11 04:29 | 59.65258 | 17.92785 | 110 ft | 0 kts | 70° |
| 2026-04-11 04:31 | 59.65259 | 17.92790 | 112 ft | 2 kts | 62° |
| 2026-04-11 04:31 | 59.65283 | 17.92797 | 111 ft | 4 kts | 339° |
| 2026-04-11 04:32 | 59.65327 | 17.92740 | 112 ft | 10 kts | 334° |
| 2026-04-11 04:32 | 59.65401 | 17.92677 | 112 ft | 13 kts | 3° |
| 2026-04-11 04:32 | 59.65462 | 17.92833 | 110 ft | 17 kts | 68° |
| 2026-04-11 04:32 | 59.65503 | 17.93074 | 110 ft | 20 kts | 75° |
| 2026-04-11 04:33 | 59.65540 | 17.93366 | 112 ft | 23 kts | 76° |
| 2026-04-11 04:33 | 59.65582 | 17.93696 | 113 ft | 26 kts | 76° |
| 2026-04-11 04:33 | 59.65625 | 17.94036 | 120 ft | 20 kts | 75° |
| 2026-04-11 04:33 | 59.65659 | 17.94301 | 122 ft | 20 kts | 75° |
| 2026-04-11 04:34 | 59.65696 | 17.94595 | 124 ft | 24 kts | 75° |
| 2026-04-11 04:34 | 59.65739 | 17.94936 | 125 ft | 27 kts | 76° |
| 2026-04-11 04:34 | 59.65715 | 17.95154 | 129 ft | 16 kts | 148° |
| 2026-04-11 04:34 | 59.65600 | 17.95221 | 128 ft | 19 kts | 166° |
| 2026-04-11 04:35 | 59.65459 | 17.95296 | 126 ft | 23 kts | 165° |
| 2026-04-11 04:35 | 59.65292 | 17.95385 | 126 ft | 27 kts | 166° |
| 2026-04-11 04:35 | 59.65095 | 17.95489 | 114 ft | 28 kts | 166° |
| 2026-04-11 04:35 | 59.64971 | 17.95572 | 111 ft | 12 kts | 137° |
| 2026-04-11 04:36 | 59.64935 | 17.95762 | 108 ft | 18 kts | 110° |
| 2026-04-11 04:36 | 59.64850 | 17.95881 | 106 ft | 15 kts | 175° |
| 2026-04-11 04:36 | 59.64732 | 17.95835 | 108 ft | 6 kts | 191° |
| 2026-04-11 04:36 | 59.64731 | 17.95835 | 107 ft | 0 kts | 191° |
| 2026-04-11 04:37 | 59.64636 | 17.95801 | 107 ft | 47 kts | 191° |
| 2026-04-11 04:37 | 59.64076 | 17.95599 | 113 ft | 113 kts | 190° |
| 2026-04-11 04:37 | 59.63136 | 17.95267 | 233 ft | 149 kts | 189° |
| 2026-04-11 04:37 | 59.62144 | 17.94930 | 844 ft | 143 kts | 188° |
| 2026-04-11 04:38 | 59.61148 | 17.94530 | 1387 ft | 148 kts | 191° |
| 2026-04-11 04:38 | 59.60104 | 17.93926 | 1596 ft | 173 kts | 194° |
| 2026-04-11 04:38 | 59.58862 | 17.93142 | 1893 ft | 198 kts | 195° |
| 2026-04-11 04:38 | 59.57485 | 17.92151 | 2316 ft | 221 kts | 206° |
| 2026-04-11 04:39 | 59.56334 | 17.89959 | 2881 ft | 245 kts | 238° |
| 2026-04-11 04:39 | 59.55592 | 17.86780 | 3578 ft | 261 kts | 248° |
| 2026-04-11 04:39 | 59.54964 | 17.83364 | 4522 ft | 268 kts | 249° |
| 2026-04-11 04:39 | 59.54693 | 17.79708 | 5458 ft | 276 kts | 276° |
| 2026-04-11 04:40 | 59.55320 | 17.76114 | 6384 ft | 282 kts | 302° |
| 2026-04-11 04:40 | 59.56415 | 17.72896 | 7327 ft | 284 kts | 304° |
| 2026-04-11 04:40 | 59.57514 | 17.69613 | 8240 ft | 289 kts | 303° |
| 2026-04-11 04:40 | 59.58616 | 17.66266 | 9125 ft | 294 kts | 304° |
| 2026-04-11 04:41 | 59.60017 | 17.63321 | 9973 ft | 297 kts | 327° |
| 2026-04-11 04:41 | 59.61914 | 17.61720 | 10706 ft | 302 kts | 351° |
| 2026-04-11 04:41 | 59.64054 | 17.61735 | 10992 ft | 318 kts | 15° |
| 2026-04-11 04:41 | 59.66229 | 17.62920 | 11516 ft | 329 kts | 19° |
| 2026-04-11 04:42 | 59.68446 | 17.64146 | 12256 ft | 333 kts | 18° |
| 2026-04-11 04:42 | 59.70697 | 17.65366 | 13021 ft | 338 kts | 18° |
| 2026-04-11 04:42 | 59.72978 | 17.66590 | 13783 ft | 342 kts | 18° |
| 2026-04-11 04:42 | 59.75288 | 17.67821 | 14479 ft | 346 kts | 18° |
| 2026-04-11 04:43 | 59.77624 | 17.69062 | 15174 ft | 349 kts | 18° |
| 2026-04-11 04:43 | 59.79984 | 17.70313 | 15844 ft | 353 kts | 18° |
| 2026-04-11 04:43 | 59.82366 | 17.71588 | 16512 ft | 356 kts | 18° |
| 2026-04-11 04:43 | 59.84754 | 17.72933 | 17155 ft | 359 kts | 19° |
| 2026-04-11 04:44 | 59.87164 | 17.74344 | 17806 ft | 363 kts | 20° |
| 2026-04-11 04:44 | 59.89596 | 17.75797 | 18465 ft | 367 kts | 20° |
| 2026-04-11 04:44 | 59.92052 | 17.77265 | 19065 ft | 370 kts | 20° |
| 2026-04-11 04:44 | 59.94527 | 17.78735 | 19690 ft | 373 kts | 19° |
| 2026-04-11 04:45 | 59.97026 | 17.80211 | 20335 ft | 375 kts | 19° |
| 2026-04-11 04:45 | 59.99535 | 17.81686 | 20960 ft | 378 kts | 19° |
| 2026-04-11 04:45 | 60.02067 | 17.83171 | 21590 ft | 380 kts | 19° |
| 2026-04-11 04:45 | 60.04614 | 17.84667 | 22198 ft | 383 kts | 19° |
| 2026-04-11 04:46 | 60.07178 | 17.86177 | 22805 ft | 386 kts | 19° |
| 2026-04-11 04:46 | 60.09727 | 17.87686 | 23405 ft | 388 kts | 19° |
| 2026-04-11 04:46 | 60.12325 | 17.89230 | 23969 ft | 391 kts | 19° |
| 2026-04-11 04:46 | 60.14941 | 17.90786 | 24447 ft | 394 kts | 20° |
| 2026-04-11 04:47 | 60.17580 | 17.92356 | 24922 ft | 397 kts | 20° |
| 2026-04-11 04:47 | 60.20232 | 17.93935 | 25393 ft | 399 kts | 20° |
| 2026-04-11 04:47 | 60.22905 | 17.95528 | 25853 ft | 402 kts | 20° |
| 2026-04-11 04:47 | 60.25595 | 17.97139 | 26315 ft | 404 kts | 20° |
| 2026-04-11 04:48 | 60.28300 | 17.98764 | 26767 ft | 407 kts | 20° |
| 2026-04-11 04:48 | 60.31018 | 18.00393 | 27210 ft | 410 kts | 19° |
| 2026-04-11 04:48 | 60.33831 | 18.01552 | 27635 ft | 415 kts | 12° |
| 2026-04-11 04:48 | 60.36670 | 18.02623 | 28061 ft | 415 kts | 18° |
| 2026-04-11 04:49 | 60.39415 | 18.04411 | 28479 ft | 415 kts | 23° |
| 2026-04-11 04:49 | 60.42145 | 18.06385 | 28895 ft | 418 kts | 23° |
| 2026-04-11 04:49 | 60.44886 | 18.08380 | 29306 ft | 420 kts | 23° |
| 2026-04-11 04:49 | 60.47643 | 18.10394 | 29732 ft | 422 kts | 23° |
| 2026-04-11 04:50 | 60.50415 | 18.12424 | 30137 ft | 425 kts | 23° |
| 2026-04-11 04:50 | 60.53208 | 18.14469 | 30507 ft | 427 kts | 23° |
| 2026-04-11 04:50 | 60.56015 | 18.16523 | 30828 ft | 430 kts | 23° |
| 2026-04-11 04:50 | 60.58836 | 18.18589 | 31137 ft | 433 kts | 23° |
| 2026-04-11 04:51 | 60.61686 | 18.20681 | 31444 ft | 436 kts | 23° |
| 2026-04-11 04:51 | 60.64551 | 18.22786 | 31744 ft | 439 kts | 23° |
| 2026-04-11 04:51 | 60.67392 | 18.24880 | 32048 ft | 441 kts | 23° |
| 2026-04-11 04:51 | 60.70280 | 18.27013 | 32450 ft | 442 kts | 23° |
| 2026-04-11 04:52 | 60.73169 | 18.29150 | 32864 ft | 442 kts | 23° |
| 2026-04-11 04:52 | 60.76062 | 18.31289 | 33273 ft | 442 kts | 23° |
| 2026-04-11 04:52 | 60.78955 | 18.33431 | 33687 ft | 442 kts | 23° |
| 2026-04-11 04:52 | 60.81847 | 18.35579 | 34124 ft | 443 kts | 23° |
| 2026-04-11 04:53 | 60.84741 | 18.37732 | 34506 ft | 443 kts | 23° |
| 2026-04-11 04:53 | 60.87635 | 18.39893 | 34853 ft | 443 kts | 22° |
| 2026-04-11 04:53 | 60.90529 | 18.42058 | 35196 ft | 443 kts | 22° |
| 2026-04-11 04:53 | 60.93427 | 18.44231 | 35527 ft | 443 kts | 22° |
| 2026-04-11 04:54 | 60.96321 | 18.46404 | 35844 ft | 443 kts | 22° |
| 2026-04-11 04:54 | 60.98275 | 18.47872 | 36061 ft | 443 kts | 22° |
| 2026-04-11 04:54 | 61.01136 | 18.50026 | 36366 ft | 443 kts | 22° |
| 2026-04-11 04:54 | 61.04032 | 18.52207 | 36682 ft | 443 kts | 22° |
| 2026-04-11 04:55 | 61.06928 | 18.54392 | 36991 ft | 443 kts | 22° |
| 2026-04-11 04:55 | 61.09822 | 18.56584 | 37305 ft | 443 kts | 22° |
| 2026-04-11 04:55 | 61.12717 | 18.58783 | 37613 ft | 443 kts | 22° |
| 2026-04-11 04:55 | 61.15611 | 18.60987 | 37910 ft | 443 kts | 22° |
| 2026-04-11 04:56 | 61.18504 | 18.63193 | 38200 ft | 443 kts | 22° |
| 2026-04-11 04:56 | 61.21397 | 18.65401 | 38489 ft | 443 kts | 22° |
| 2026-04-11 04:56 | 61.25261 | 18.68360 | 38856 ft | 443 kts | 22° |
| 2026-04-11 04:56 | 61.27174 | 18.69830 | 39015 ft | 443 kts | 22° |
| 2026-04-11 04:57 | 61.30067 | 18.72057 | 39209 ft | 443 kts | 22° |
| 2026-04-11 04:57 | 61.35863 | 18.76533 | 39315 ft | 445 kts | 22° |
| 2026-04-11 04:58 | 61.41663 | 18.81027 | 39315 ft | 445 kts | 22° |
| 2026-04-11 04:58 | 61.47469 | 18.85534 | 39317 ft | 445 kts | 22° |
| 2026-04-11 04:59 | 61.53270 | 18.90049 | 39314 ft | 445 kts | 22° |
| 2026-04-11 04:59 | 61.59036 | 18.94553 | 39319 ft | 445 kts | 22° |
| 2026-04-11 05:00 | 61.64848 | 18.99124 | 39320 ft | 446 kts | 23° |
| 2026-04-11 05:00 | 61.70663 | 19.03717 | 39331 ft | 447 kts | 22° |
| 2026-04-11 05:01 | 61.76483 | 19.08320 | 39336 ft | 447 kts | 23° |
| 2026-04-11 05:01 | 61.82301 | 19.12964 | 39332 ft | 447 kts | 23° |
| 2026-04-11 05:02 | 61.88127 | 19.17613 | 39338 ft | 447 kts | 23° |
| 2026-04-11 05:02 | 61.93951 | 19.22288 | 39345 ft | 448 kts | 23° |
| 2026-04-11 05:03 | 61.99779 | 19.26985 | 39348 ft | 448 kts | 23° |
| 2026-04-11 05:03 | 62.05606 | 19.31692 | 39352 ft | 448 kts | 23° |
| 2026-04-11 05:04 | 62.11432 | 19.36418 | 39343 ft | 448 kts | 24° |
| 2026-04-11 05:04 | 62.17261 | 19.41184 | 39347 ft | 449 kts | 24° |
| 2026-04-11 05:05 | 62.25970 | 19.48327 | 39356 ft | 449 kts | 24° |
| 2026-04-11 05:05 | 62.31800 | 19.53137 | 39357 ft | 449 kts | 24° |
| 2026-04-11 05:06 | 62.37626 | 19.57956 | 39340 ft | 449 kts | 24° |
| 2026-04-11 05:06 | 62.43456 | 19.62805 | 39344 ft | 449 kts | 24° |
| 2026-04-11 05:07 | 62.49298 | 19.67657 | 39351 ft | 450 kts | 24° |
| 2026-04-11 05:07 | 62.55143 | 19.72544 | 39355 ft | 450 kts | 24° |
| 2026-04-11 05:08 | 62.60982 | 19.77463 | 39363 ft | 450 kts | 24° |
| 2026-04-11 05:08 | 62.66822 | 19.82404 | 39351 ft | 450 kts | 24° |
| 2026-04-11 05:09 | 62.72667 | 19.87355 | 39354 ft | 451 kts | 24° |
| 2026-04-11 05:09 | 62.78479 | 19.92302 | 39357 ft | 451 kts | 24° |
| 2026-04-11 05:10 | 62.84326 | 19.97319 | 39363 ft | 451 kts | 24° |
| 2026-04-11 05:10 | 62.90167 | 20.02355 | 39365 ft | 451 kts | 24° |
| 2026-04-11 05:11 | 62.96034 | 20.07435 | 38365 ft | 461 kts | 25° |
| 2026-04-11 05:11 | 62.99019 | 20.10017 | 37763 ft | 459 kts | 25° |
| 2026-04-11 05:11 | 63.01989 | 20.12577 | 37156 ft | 458 kts | 25° |
| 2026-04-11 05:12 | 63.04961 | 20.15149 | 36417 ft | 460 kts | 26° |
| 2026-04-11 05:12 | 63.07940 | 20.17739 | 35901 ft | 457 kts | 26° |
| 2026-04-11 05:12 | 63.10883 | 20.20303 | 35429 ft | 454 kts | 27° |
| 2026-04-11 05:12 | 63.13813 | 20.22865 | 34929 ft | 451 kts | 27° |
| 2026-04-11 05:13 | 63.16726 | 20.25418 | 34431 ft | 449 kts | 27° |
| 2026-04-11 05:13 | 63.19624 | 20.27963 | 33869 ft | 447 kts | 27° |
| 2026-04-11 05:13 | 63.22500 | 20.30497 | 33374 ft | 443 kts | 28° |
| 2026-04-11 05:13 | 63.25348 | 20.33014 | 32872 ft | 439 kts | 28° |
| 2026-04-11 05:14 | 63.28138 | 20.35478 | 32377 ft | 435 kts | 28° |
| 2026-04-11 05:14 | 63.30936 | 20.37957 | 31891 ft | 431 kts | 28° |
| 2026-04-11 05:14 | 63.33709 | 20.40424 | 31407 ft | 428 kts | 28° |
| 2026-04-11 05:14 | 63.36460 | 20.42878 | 30934 ft | 424 kts | 28° |
| 2026-04-11 05:15 | 63.39192 | 20.45321 | 30467 ft | 421 kts | 28° |
| 2026-04-11 05:15 | 63.41898 | 20.47744 | 29965 ft | 417 kts | 28° |
| 2026-04-11 05:15 | 63.44574 | 20.50135 | 29524 ft | 412 kts | 28° |
| 2026-04-11 05:15 | 63.47220 | 20.52500 | 29093 ft | 408 kts | 28° |
| 2026-04-11 05:16 | 63.49838 | 20.54847 | 28680 ft | 404 kts | 28° |
| 2026-04-11 05:16 | 63.52435 | 20.57185 | 28246 ft | 400 kts | 28° |
| 2026-04-11 05:16 | 63.55006 | 20.59509 | 27842 ft | 397 kts | 28° |
| 2026-04-11 05:16 | 63.57561 | 20.61826 | 27428 ft | 395 kts | 28° |
| 2026-04-11 05:17 | 63.60103 | 20.64139 | 27014 ft | 394 kts | 28° |
| 2026-04-11 05:17 | 63.62640 | 20.66453 | 26597 ft | 392 kts | 27° |
| 2026-04-11 05:17 | 63.65162 | 20.68756 | 26174 ft | 391 kts | 27° |
| 2026-04-11 05:17 | 63.67676 | 20.71053 | 25740 ft | 390 kts | 27° |
| 2026-04-11 05:18 | 63.70183 | 20.73347 | 25309 ft | 388 kts | 27° |
| 2026-04-11 05:18 | 63.72689 | 20.75642 | 24856 ft | 388 kts | 27° |
| 2026-04-11 05:18 | 63.75187 | 20.77930 | 24405 ft | 387 kts | 27° |
| 2026-04-11 05:18 | 63.77683 | 20.80218 | 23946 ft | 387 kts | 26° |
| 2026-04-11 05:19 | 63.80174 | 20.82509 | 23408 ft | 386 kts | 26° |
| 2026-04-11 05:19 | 63.82650 | 20.84792 | 22975 ft | 382 kts | 26° |
| 2026-04-11 05:19 | 63.85101 | 20.87058 | 22515 ft | 379 kts | 26° |
| 2026-04-11 05:19 | 63.87532 | 20.89310 | 22055 ft | 376 kts | 26° |
| 2026-04-11 05:20 | 63.89945 | 20.91547 | 21599 ft | 373 kts | 26° |
| 2026-04-11 05:20 | 63.92344 | 20.93772 | 21147 ft | 371 kts | 26° |
| 2026-04-11 05:20 | 63.94691 | 20.95953 | 20690 ft | 368 kts | 26° |
| 2026-04-11 05:20 | 63.97056 | 20.98151 | 20249 ft | 366 kts | 25° |
| 2026-04-11 05:21 | 63.99407 | 21.00341 | 19799 ft | 364 kts | 25° |
| 2026-04-11 05:21 | 64.01745 | 21.02524 | 19351 ft | 362 kts | 25° |
| 2026-04-11 05:21 | 64.04075 | 21.04710 | 18904 ft | 361 kts | 25° |
| 2026-04-11 05:21 | 64.06388 | 21.06890 | 18431 ft | 359 kts | 25° |
| 2026-04-11 05:22 | 64.08689 | 21.09066 | 17962 ft | 356 kts | 25° |
| 2026-04-11 05:22 | 64.10972 | 21.11229 | 17529 ft | 353 kts | 25° |
| 2026-04-11 05:22 | 64.13270 | 21.13149 | 17089 ft | 352 kts | 14° |
| 2026-04-11 05:22 | 64.15707 | 21.13385 | 16656 ft | 352 kts | 352° |
| 2026-04-11 05:23 | 64.18014 | 21.11622 | 16224 ft | 350 kts | 329° |
| 2026-04-11 05:23 | 64.19887 | 21.08115 | 15722 ft | 348 kts | 308° |
| 2026-04-11 05:23 | 64.21092 | 21.03355 | 15220 ft | 344 kts | 287° |
| 2026-04-11 05:23 | 64.21624 | 20.98038 | 14717 ft | 342 kts | 277° |
| 2026-04-11 05:24 | 64.22045 | 20.92656 | 14220 ft | 342 kts | 277° |
| 2026-04-11 05:24 | 64.22514 | 20.87307 | 13764 ft | 341 kts | 285° |
| 2026-04-11 05:24 | 64.23658 | 20.82550 | 13266 ft | 344 kts | 311° |
| 2026-04-11 05:24 | 64.25566 | 20.79297 | 12703 ft | 345 kts | 338° |
| 2026-04-11 05:25 | 64.27877 | 20.78206 | 12247 ft | 341 kts | 2° |
| 2026-04-11 05:25 | 64.30161 | 20.79325 | 11850 ft | 333 kts | 21° |
| 2026-04-11 05:25 | 64.32337 | 20.81046 | 11349 ft | 334 kts | 21° |
| 2026-04-11 05:25 | 64.34505 | 20.82773 | 11118 ft | 325 kts | 21° |
| 2026-04-11 05:26 | 64.36605 | 20.84445 | 10989 ft | 314 kts | 21° |
| 2026-04-11 05:26 | 64.38526 | 20.86589 | 10537 ft | 302 kts | 38° |
| 2026-04-11 05:26 | 64.40008 | 20.89927 | 10003 ft | 296 kts | 58° |
| 2026-04-11 05:26 | 64.40957 | 20.94059 | 9547 ft | 286 kts | 75° |
| 2026-04-11 05:27 | 64.41331 | 20.98498 | 8847 ft | 279 kts | 92° |
| 2026-04-11 05:27 | 64.41178 | 21.02956 | 8399 ft | 278 kts | 99° |
| 2026-04-11 05:27 | 64.41066 | 21.07424 | 8039 ft | 278 kts | 94° |
| 2026-04-11 05:27 | 64.41131 | 21.11867 | 7542 ft | 275 kts | 89° |
| 2026-04-11 05:28 | 64.41366 | 21.16199 | 7127 ft | 267 kts | 84° |
| 2026-04-11 05:28 | 64.41748 | 21.20338 | 6759 ft | 259 kts | 79° |
| 2026-04-11 05:28 | 64.42242 | 21.24289 | 6382 ft | 253 kts | 76° |
| 2026-04-11 05:28 | 64.42828 | 21.28146 | 6053 ft | 255 kts | 71° |
| 2026-04-11 05:29 | 64.43572 | 21.31867 | 5670 ft | 256 kts | 65° |
| 2026-04-11 05:29 | 64.44500 | 21.35497 | 5102 ft | 266 kts | 58° |
| 2026-04-11 05:29 | 64.45599 | 21.38981 | 4705 ft | 269 kts | 52° |
| 2026-04-11 05:29 | 64.46829 | 21.42249 | 4353 ft | 269 kts | 47° |
| 2026-04-11 05:30 | 64.48172 | 21.45276 | 4007 ft | 269 kts | 42° |
| 2026-04-11 05:30 | 64.49603 | 21.47992 | 3872 ft | 260 kts | 37° |
| 2026-04-11 05:30 | 64.51060 | 21.50329 | 3793 ft | 250 kts | 32° |
| 2026-04-11 05:30 | 64.52514 | 21.52284 | 3699 ft | 239 kts | 28° |
| 2026-04-11 05:31 | 64.54013 | 21.53890 | 3583 ft | 229 kts | 15° |
| 2026-04-11 05:31 | 64.55538 | 21.53841 | 3478 ft | 216 kts | 338° |
| 2026-04-11 05:31 | 64.56672 | 21.51955 | 3394 ft | 194 kts | 304° |
| 2026-04-11 05:31 | 64.57211 | 21.49181 | 3295 ft | 187 kts | 284° |
| 2026-04-11 05:32 | 64.57577 | 21.46302 | 3191 ft | 185 kts | 284° |
| 2026-04-11 05:32 | 64.57942 | 21.43439 | 3079 ft | 184 kts | 284° |
| 2026-04-11 05:32 | 64.58308 | 21.40583 | 2870 ft | 183 kts | 284° |
| 2026-04-11 05:32 | 64.58670 | 21.37752 | 2641 ft | 181 kts | 283° |
| 2026-04-11 05:33 | 64.59024 | 21.34987 | 2391 ft | 175 kts | 283° |
| 2026-04-11 05:33 | 64.59362 | 21.32341 | 2160 ft | 166 kts | 283° |
| 2026-04-11 05:33 | 64.59682 | 21.29823 | 1930 ft | 160 kts | 283° |
| 2026-04-11 05:33 | 64.59996 | 21.27351 | 1707 ft | 158 kts | 283° |
| 2026-04-11 05:34 | 64.60299 | 21.24969 | 1501 ft | 145 kts | 283° |
| 2026-04-11 05:34 | 64.60575 | 21.22794 | 1287 ft | 136 kts | 283° |
| 2026-04-11 05:34 | 64.60838 | 21.20714 | 1085 ft | 132 kts | 284° |
| 2026-04-11 05:34 | 64.61096 | 21.18668 | 888 ft | 131 kts | 285° |
| 2026-04-11 05:35 | 64.61351 | 21.16645 | 701 ft | 130 kts | 285° |
| 2026-04-11 05:35 | 64.61604 | 21.14635 | 529 ft | 129 kts | 286° |
| 2026-04-11 05:35 | 64.61850 | 21.12667 | 367 ft | 128 kts | 286° |
| 2026-04-11 05:35 | 64.62103 | 21.10680 | 222 ft | 128 kts | 286° |
| 2026-04-11 05:36 | 64.62340 | 21.08798 | 160 ft | 106 kts | 286° |
| 2026-04-11 05:36 | 64.62496 | 21.07540 | 159 ft | 55 kts | 286° |
| 2026-04-11 05:36 | 64.62559 | 21.07029 | 160 ft | 18 kts | 285° |
| 2026-04-11 05:36 | 64.62530 | 21.06857 | 161 ft | 12 kts | 212° |
| 2026-04-11 05:37 | 64.62463 | 21.06805 | 158 ft | 7 kts | 202° |
| 2026-04-11 05:37 | 64.62441 | 21.06739 | 160 ft | 0 kts | 249° |
| 2026-04-11 05:37 | 64.62440 | 21.06737 | 160 ft | 0 kts | 246° |
| 2026-04-11 05:37 | 64.62440 | 21.06733 | 160 ft | 2 kts | 247° |
| 2026-04-11 05:38 | 64.62436 | 21.06661 | 160 ft | 3 kts | 248° |
| 2026-04-11 05:38 | 64.62430 | 21.06651 | 160 ft | 0 kts | 218° |
| 2026-04-11 05:38 | 64.62427 | 21.06649 | 160 ft | 2 kts | 206° |
| 2026-04-11 05:38 | 64.62410 | 21.06666 | 160 ft | 0 kts | 136° |
| 2026-04-11 05:39 | 64.62407 | 21.06696 | 160 ft | 7 kts | 95° |
| 2026-04-11 05:39 | 64.62418 | 21.06861 | 160 ft | 9 kts | 95° |
| 2026-04-11 05:39 | 64.62393 | 21.06902 | 160 ft | 5 kts | 206° |
| 2026-04-11 05:39 | 64.62382 | 21.06811 | 160 ft | 4 kts | 246° |
| 2026-04-11 05:40 | 64.62374 | 21.06789 | 160 ft | 0 kts | 232° |